Time;durP1;ratioP1;P1;durP2;ratioP2;P2;SDS_P1;SDS_P2;PMS_P1;PMS_P2;Temp;Humidity;BMP_temperature;BMP_pressure;BME280_temperature;BME280_humidity;BME280_pressure;Samples;Min_cycle;Max_cycle;Signal;HPM_P1;HPM_P2
2021/07/13 00:00:45;;;;;;;8.15;6.53;;;;;;;21.33;72.27;96611.38;4977119;28;20128;-77
2021/07/13 00:03:10;;;;;;;7.47;6.68;;;;;;;21.33;72.04;96604.22;5009479;28;20046;-77
2021/07/13 00:05:39;;;;;;;6.93;6.32;;;;;;;21.28;72.01;96603.66;4991381;28;20037;-77
2021/07/13 00:08:05;;;;;;;7.95;7.15;;;;;;;21.41;71.81;96602.56;4976937;28;20113;-77
2021/07/13 00:10:33;;;;;;;8.07;6.85;;;;;;;21.35;71.98;96597.81;4977213;28;20116;-77
2021/07/13 00:12:59;;;;;;;7.88;7.18;;;;;;;21.31;72.17;96598.47;4976212;28;20036;-77
2021/07/13 00:15:27;;;;;;;7.55;6.82;;;;;;;21.25;72.12;96597.16;4976139;28;20025;-77
2021/07/13 00:17:54;;;;;;;8.25;7.40;;;;;;;21.28;72.07;96598.34;4960905;28;20033;-77
2021/07/13 00:20:20;;;;;;;8.02;7.22;;;;;;;21.25;72.08;96599.00;4977019;28;20045;-77
2021/07/13 00:22:46;;;;;;;8.27;7.47;;;;;;;21.22;72.34;96594.38;4990619;28;20129;-77
2021/07/13 00:25:13;;;;;;;8.32;7.53;;;;;;;21.22;72.10;96603.09;4993042;28;20108;-77
2021/07/13 00:27:39;;;;;;;8.57;7.78;;;;;;;21.21;72.39;96608.72;4977212;28;20421;-77
2021/07/13 00:30:06;;;;;;;9.20;8.30;;;;;;;21.12;72.46;96604.28;4992289;28;20038;-77
2021/07/13 00:32:32;;;;;;;7.45;6.70;;;;;;;21.22;72.62;96604.97;4986761;28;20061;-78
2021/07/13 00:34:57;;;;;;;8.45;7.63;;;;;;;21.22;72.46;96602.31;4996593;28;20064;-77
2021/07/13 07:10:35;;;;;;;14.35;11.23;;;;;;;19.43;85.41;96542.56;5079894;27;1939540;-78
2021/07/13 07:13:00;;;;;;;11.90;10.00;;;;;;;20.12;81.04;96545.19;5093081;27;20031;-79
2021/07/13 07:15:28;;;;;;;12.93;10.38;;;;;;;20.41;78.64;96552.28;5086175;28;20468;-79
2021/07/13 07:17:54;;;;;;;11.93;10.00;;;;;;;20.55;78.44;96552.00;5095116;28;20027;-79
2021/07/13 07:20:22;;;;;;;10.38;9.30;;;;;;;20.51;77.69;96548.47;5090792;28;20132;-79
2021/07/13 07:22:47;;;;;;;8.65;7.57;;;;;;;20.63;78.41;96553.84;5101394;28;20069;-79
2021/07/13 07:25:13;;;;;;;8.00;7.22;;;;;;;20.54;76.75;96547.81;5122358;28;20059;-79
2021/07/13 07:27:39;;;;;;;6.97;6.38;;;;;;;20.60;76.90;96549.16;5080841;28;20027;-79
2021/07/13 07:30:07;;;;;;;7.30;6.60;;;;;;;20.55;76.71;96541.44;5097824;28;20046;-79
2021/07/13 07:32:34;;;;;;;6.25;5.65;;;;;;;20.75;75.94;96532.72;5100479;28;20458;-79
2021/07/13 07:34:59;;;;;;;6.38;5.78;;;;;;;20.80;75.48;96528.31;5084493;28;20042;-79
2021/07/13 07:37:25;;;;;;;7.50;6.05;;;;;;;20.85;75.02;96533.41;5106078;28;20039;-80
2021/07/13 07:39:50;;;;;;;6.80;5.82;;;;;;;20.70;75.67;96526.84;5084645;28;20023;-80
2021/07/13 07:42:16;;;;;;;6.30;5.70;;;;;;;20.63;75.31;96537.97;5103917;28;20019;-80
2021/07/13 07:44:41;;;;;;;6.75;6.05;;;;;;;20.59;75.75;96544.97;5091354;28;20466;-80
2021/07/13 07:47:07;;;;;;;5.43;4.93;;;;;;;20.60;76.22;96541.25;5080686;28;20146;-80
2021/07/13 07:49:33;;;;;;;6.70;6.07;;;;;;;20.63;75.41;96542.47;5102728;28;20602;-80
2021/07/13 07:51:59;;;;;;;6.60;6.00;;;;;;;20.58;75.52;96546.09;5068654;28;20030;-80
2021/07/13 07:54:24;;;;;;;5.75;5.18;;;;;;;20.59;74.91;96540.44;5071491;28;20397;-80
2021/07/13 07:56:50;;;;;;;6.00;5.50;;;;;;;20.59;75.07;96529.09;5105858;28;20073;-80
2021/07/13 07:59:17;;;;;;;5.57;5.13;;;;;;;20.53;74.41;96528.53;5103626;28;20027;-80
2021/07/13 08:01:42;;;;;;;5.28;4.82;;;;;;;20.56;74.60;96524.44;5094396;28;20019;-81
2021/07/13 08:06:11;;;;;;;5.95;5.35;;;;;;;20.42;74.92;96510.75;5072789;27;1989286;-80
2021/07/13 08:08:36;;;;;;;5.50;4.68;;;;;;;20.68;74.39;96524.56;5121362;28;20059;-80
2021/07/13 08:11:01;;;;;;;5.93;4.95;;;;;;;20.76;73.87;96520.25;5087891;28;20074;-79
2021/07/13 08:13:27;;;;;;;4.95;4.55;;;;;;;20.75;73.65;96513.41;5084253;28;20043;-80
2021/07/13 08:15:54;;;;;;;4.75;4.35;;;;;;;20.55;73.93;96522.91;5095320;28;20023;-80
2021/07/13 08:18:20;;;;;;;4.68;4.25;;;;;;;20.66;74.04;96524.06;5092484;28;20409;-80
2021/07/13 08:20:46;;;;;;;4.88;4.47;;;;;;;20.70;73.82;96538.22;5067661;28;20027;-79
2021/07/13 08:23:12;;;;;;;5.30;4.82;;;;;;;20.74;73.93;96535.69;5063108;28;20039;-79
2021/07/13 08:25:37;;;;;;;4.90;4.50;;;;;;;20.74;73.96;96538.34;5107718;28;20058;-79
2021/07/13 08:28:03;;;;;;;4.85;4.43;;;;;;;20.75;73.74;96538.00;5108942;28;20039;-79
2021/07/13 08:30:30;;;;;;;4.70;4.30;;;;;;;20.76;73.64;96538.78;5085807;28;20031;-79
2021/07/13 08:32:56;;;;;;;5.28;4.50;;;;;;;20.82;73.17;96532.19;5088649;28;20020;-80
2021/07/13 08:35:22;;;;;;;5.53;5.13;;;;;;;20.59;74.22;96532.50;5121329;27;20658;-79
2021/07/13 08:37:49;;;;;;;4.85;4.45;;;;;;;20.51;74.68;96541.31;5094555;28;20028;-79
2021/07/13 08:40:15;;;;;;;4.57;4.18;;;;;;;20.54;74.60;96535.34;5106186;28;20031;-79
